sensor_id;sensor_type;location;lat;lon;timestamp;P1;durP1;ratioP1;P2;durP2;ratioP2
71204;SDS011;58935;54.498;18.544;2023-05-02T00:00:47;21.60;;;6.10;;
71204;SDS011;58935;54.498;18.544;2023-05-02T00:03:15;13.60;;;6.00;;
71204;SDS011;58935;54.498;18.544;2023-05-02T00:05:41;14.40;;;6.10;;
71204;SDS011;58935;54.498;18.544;2023-05-02T00:08:10;9.90;;;5.60;;
71204;SDS011;58935;54.498;18.544;2023-05-02T00:10:36;12.90;;;6.00;;
71204;SDS011;58935;54.498;18.544;2023-05-02T00:13:01;9.70;;;5.90;;
71204;SDS011;58935;54.498;18.544;2023-05-02T00:15:30;13.10;;;6.20;;
71204;SDS011;58935;54.498;18.544;2023-05-02T00:17:55;13.50;;;6.20;;
71204;SDS011;58935;54.498;18.544;2023-05-02T00:20:21;12.10;;;6.10;;
71204;SDS011;58935;54.498;18.544;2023-05-02T00:22:46;15.10;;;6.30;;
71204;SDS011;58935;54.498;18.544;2023-05-02T00:25:12;14.10;;;6.00;;
71204;SDS011;58935;54.498;18.544;2023-05-02T00:27:41;13.10;;;5.50;;
71204;SDS011;58935;54.498;18.544;2023-05-02T00:30:08;13.60;;;6.20;;
71204;SDS011;58935;54.498;18.544;2023-05-02T00:32:36;12.40;;;5.90;;
71204;SDS011;58935;54.498;18.544;2023-05-02T00:35:02;14.80;;;6.40;;
71204;SDS011;58935;54.498;18.544;2023-05-02T00:37:28;11.80;;;6.00;;
71204;SDS011;58935;54.498;18.544;2023-05-02T00:39:58;14.20;;;6.40;;
71204;SDS011;58935;54.498;18.544;2023-05-02T00:42:23;12.40;;;6.60;;
71204;SDS011;58935;54.498;18.544;2023-05-02T00:44:49;11.40;;;6.10;;
71204;SDS011;58935;54.498;18.544;2023-05-02T00:47:17;14.70;;;6.40;;
71204;SDS011;58935;54.498;18.544;2023-05-02T00:49:45;16.90;;;6.40;;
71204;SDS011;58935;54.498;18.544;2023-05-02T00:52:10;9.10;;;6.20;;
71204;SDS011;58935;54.498;18.544;2023-05-02T00:54:37;18.00;;;6.30;;
71204;SDS011;58935;54.498;18.544;2023-05-02T00:57:03;14.20;;;6.70;;
71204;SDS011;58935;54.498;18.544;2023-05-02T00:59:29;14.80;;;7.00;;
71204;SDS011;58935;54.498;18.544;2023-05-02T01:02:09;18.20;;;6.60;;
71204;SDS011;58935;54.498;18.544;2023-05-02T01:05:16;10.40;;;6.10;;
71204;SDS011;58935;54.498;18.544;2023-05-02T01:07:59;13.30;;;6.00;;
71204;SDS011;58935;54.498;18.544;2023-05-02T01:10:46;11.30;;;6.20;;
71204;SDS011;58935;54.498;18.544;2023-05-02T01:13:23;10.30;;;6.10;;
71204;SDS011;58935;54.498;18.544;2023-05-02T01:15:53;12.00;;;6.70;;
71204;SDS011;58935;54.498;18.544;2023-05-02T01:18:28;17.40;;;6.40;;
71204;SDS011;58935;54.498;18.544;2023-05-02T01:21:03;11.30;;;6.40;;
71204;SDS011;58935;54.498;18.544;2023-05-02T01:26:26;12.90;;;6.80;;
71204;SDS011;58935;54.498;18.544;2023-05-02T01:29:03;14.00;;;6.60;;
71204;SDS011;58935;54.498;18.544;2023-05-02T01:31:37;11.00;;;6.50;;
71204;SDS011;58935;54.498;18.544;2023-05-02T01:34:08;12.60;;;6.90;;
71204;SDS011;58935;54.498;18.544;2023-05-02T01:36:35;11.30;;;6.40;;
71204;SDS011;58935;54.498;18.544;2023-05-02T01:39:06;11.20;;;6.50;;
71204;SDS011;58935;54.498;18.544;2023-05-02T01:41:35;16.70;;;6.40;;
71204;SDS011;58935;54.498;18.544;2023-05-02T01:44:04;10.40;;;6.20;;
71204;SDS011;58935;54.498;18.544;2023-05-02T01:46:35;12.70;;;6.30;;
71204;SDS011;58935;54.498;18.544;2023-05-02T01:49:05;11.80;;;7.10;;
71204;SDS011;58935;54.498;18.544;2023-05-02T01:51:34;13.50;;;6.70;;
71204;SDS011;58935;54.498;18.544;2023-05-02T01:54:07;15.10;;;6.70;;
71204;SDS011;58935;54.498;18.544;2023-05-02T01:56:37;9.40;;;6.10;;
71204;SDS011;58935;54.498;18.544;2023-05-02T01:59:07;12.80;;;6.80;;
71204;SDS011;58935;54.498;18.544;2023-05-02T02:01:39;12.70;;;6.50;;
71204;SDS011;58935;54.498;18.544;2023-05-02T02:04:11;12.50;;;7.10;;
71204;SDS011;58935;54.498;18.544;2023-05-02T02:06:45;11.20;;;6.50;;
71204;SDS011;58935;54.498;18.544;2023-05-02T02:09:22;14.90;;;7.60;;
71204;SDS011;58935;54.498;18.544;2023-05-02T02:12:06;17.70;;;6.70;;
71204;SDS011;58935;54.498;18.544;2023-05-02T02:14:42;12.70;;;6.90;;
71204;SDS011;58935;54.498;18.544;2023-05-02T02:17:15;16.20;;;6.60;;
71204;SDS011;58935;54.498;18.544;2023-05-02T02:19:52;12.50;;;6.90;;
71204;SDS011;58935;54.498;18.544;2023-05-02T02:22:27;9.50;;;6.30;;
71204;SDS011;58935;54.498;18.544;2023-05-02T02:24:55;12.30;;;6.70;;
71204;SDS011;58935;54.498;18.544;2023-05-02T02:27:22;11.10;;;6.50;;
71204;SDS011;58935;54.498;18.544;2023-05-02T02:29:50;17.40;;;6.40;;
71204;SDS011;58935;54.498;18.544;2023-05-02T02:32:18;17.50;;;6.90;;
71204;SDS011;58935;54.498;18.544;2023-05-02T02:34:46;9.70;;;6.30;;
71204;SDS011;58935;54.498;18.544;2023-05-02T02:37:17;13.60;;;6.70;;
71204;SDS011;58935;54.498;18.544;2023-05-02T02:48:28;15.60;;;6.50;;
71204;SDS011;58935;54.498;18.544;2023-05-02T02:51:21;10.10;;;6.00;;
71204;SDS011;58935;54.498;18.544;2023-05-02T02:56:33;17.90;;;7.30;;
71204;SDS011;58935;54.498;18.544;2023-05-02T02:59:11;15.10;;;6.90;;
71204;SDS011;58935;54.498;18.544;2023-05-02T03:01:42;13.30;;;6.60;;
71204;SDS011;58935;54.498;18.544;2023-05-02T03:04:15;13.70;;;6.10;;
71204;SDS011;58935;54.498;18.544;2023-05-02T03:06:41;11.10;;;6.50;;
71204;SDS011;58935;54.498;18.544;2023-05-02T03:09:16;15.80;;;7.60;;
71204;SDS011;58935;54.498;18.544;2023-05-02T03:11:43;12.80;;;6.50;;
71204;SDS011;58935;54.498;18.544;2023-05-02T03:14:13;12.40;;;6.40;;
71204;SDS011;58935;54.498;18.544;2023-05-02T03:16:41;15.80;;;6.70;;
71204;SDS011;58935;54.498;18.544;2023-05-02T03:19:10;17.50;;;7.00;;
71204;SDS011;58935;54.498;18.544;2023-05-02T03:21:40;15.30;;;6.40;;
71204;SDS011;58935;54.498;18.544;2023-05-02T03:24:06;10.60;;;6.50;;
71204;SDS011;58935;54.498;18.544;2023-05-02T03:26:32;13.60;;;6.90;;
71204;SDS011;58935;54.498;18.544;2023-05-02T03:28:57;14.50;;;6.10;;
71204;SDS011;58935;54.498;18.544;2023-05-02T03:31:25;9.10;;;6.20;;
71204;SDS011;58935;54.498;18.544;2023-05-02T03:33:51;14.90;;;6.40;;
71204;SDS011;58935;54.498;18.544;2023-05-02T03:36:17;13.80;;;6.70;;
71204;SDS011;58935;54.498;18.544;2023-05-02T03:38:42;11.80;;;6.50;;
71204;SDS011;58935;54.498;18.544;2023-05-02T03:41:08;14.60;;;6.90;;
71204;SDS011;58935;54.498;18.544;2023-05-02T03:43:33;13.90;;;6.00;;
71204;SDS011;58935;54.498;18.544;2023-05-02T03:46:04;14.80;;;6.10;;
71204;SDS011;58935;54.498;18.544;2023-05-02T03:48:34;11.70;;;6.10;;
71204;SDS011;58935;54.498;18.544;2023-05-02T03:51:02;13.40;;;6.30;;
71204;SDS011;58935;54.498;18.544;2023-05-02T03:53:30;13.20;;;6.70;;
71204;SDS011;58935;54.498;18.544;2023-05-02T03:55:56;11.80;;;6.20;;
71204;SDS011;58935;54.498;18.544;2023-05-02T03:58:22;18.40;;;6.50;;
71204;SDS011;58935;54.498;18.544;2023-05-02T04:00:49;16.30;;;6.10;;
71204;SDS011;58935;54.498;18.544;2023-05-02T04:03:17;14.70;;;6.40;;
71204;SDS011;58935;54.498;18.544;2023-05-02T04:05:44;12.30;;;6.00;;
71204;SDS011;58935;54.498;18.544;2023-05-02T04:08:10;11.90;;;5.70;;
71204;SDS011;58935;54.498;18.544;2023-05-02T04:10:36;13.00;;;6.10;;
71204;SDS011;58935;54.498;18.544;2023-05-02T04:13:04;12.30;;;5.10;;
71204;SDS011;58935;54.498;18.544;2023-05-02T04:15:30;12.20;;;5.60;;
71204;SDS011;58935;54.498;18.544;2023-05-02T04:17:57;11.30;;;5.70;;
71204;SDS011;58935;54.498;18.544;2023-05-02T04:20:23;12.70;;;5.80;;
71204;SDS011;58935;54.498;18.544;2023-05-02T04:22:49;17.20;;;6.40;;
71204;SDS011;58935;54.498;18.544;2023-05-02T04:25:17;12.40;;;5.60;;
71204;SDS011;58935;54.498;18.544;2023-05-02T04:27:43;15.50;;;6.30;;
71204;SDS011;58935;54.498;18.544;2023-05-02T04:30:09;12.70;;;6.10;;
71204;SDS011;58935;54.498;18.544;2023-05-02T04:32:37;20.20;;;5.80;;
71204;SDS011;58935;54.498;18.544;2023-05-02T04:35:03;12.90;;;6.20;;
71204;SDS011;58935;54.498;18.544;2023-05-02T04:37:29;10.60;;;6.00;;
71204;SDS011;58935;54.498;18.544;2023-05-02T04:39:55;8.20;;;5.70;;
71204;SDS011;58935;54.498;18.544;2023-05-02T04:42:24;15.70;;;5.90;;
71204;SDS011;58935;54.498;18.544;2023-05-02T04:44:49;8.90;;;5.80;;
71204;SDS011;58935;54.498;18.544;2023-05-02T04:47:15;9.60;;;4.80;;
71204;SDS011;58935;54.498;18.544;2023-05-02T04:49:43;14.70;;;5.90;;
71204;SDS011;58935;54.498;18.544;2023-05-02T04:52:09;10.20;;;5.60;;
71204;SDS011;58935;54.498;18.544;2023-05-02T04:54:37;15.90;;;6.00;;
71204;SDS011;58935;54.498;18.544;2023-05-02T04:57:02;13.40;;;5.60;;
71204;SDS011;58935;54.498;18.544;2023-05-02T04:59:32;13.60;;;5.60;;
71204;SDS011;58935;54.498;18.544;2023-05-02T05:01:59;15.20;;;5.10;;
71204;SDS011;58935;54.498;18.544;2023-05-02T05:04:24;12.80;;;5.60;;
71204;SDS011;58935;54.498;18.544;2023-05-02T05:06:52;7.10;;;5.30;;
71204;SDS011;58935;54.498;18.544;2023-05-02T05:09:21;12.20;;;5.50;;
71204;SDS011;58935;54.498;18.544;2023-05-02T05:11:46;11.20;;;5.40;;
71204;SDS011;58935;54.498;18.544;2023-05-02T05:14:14;12.40;;;5.20;;
71204;SDS011;58935;54.498;18.544;2023-05-02T05:16:40;11.30;;;5.60;;
71204;SDS011;58935;54.498;18.544;2023-05-02T05:19:05;11.80;;;5.40;;
71204;SDS011;58935;54.498;18.544;2023-05-02T05:21:33;9.00;;;5.30;;
71204;SDS011;58935;54.498;18.544;2023-05-02T05:23:59;14.90;;;5.30;;
71204;SDS011;58935;54.498;18.544;2023-05-02T05:26:24;10.30;;;4.90;;
71204;SDS011;58935;54.498;18.544;2023-05-02T05:28:53;14.40;;;6.00;;
71204;SDS011;58935;54.498;18.544;2023-05-02T05:31:18;8.90;;;4.60;;
71204;SDS011;58935;54.498;18.544;2023-05-02T05:33:44;6.20;;;3.50;;
71204;SDS011;58935;54.498;18.544;2023-05-02T05:36:11;14.10;;;5.60;;
71204;SDS011;58935;54.498;18.544;2023-05-02T05:38:39;8.70;;;5.30;;
71204;SDS011;58935;54.498;18.544;2023-05-02T05:41:06;10.50;;;5.30;;
71204;SDS011;58935;54.498;18.544;2023-05-02T05:43:33;9.60;;;4.90;;
71204;SDS011;58935;54.498;18.544;2023-05-02T05:45:59;9.10;;;4.80;;
71204;SDS011;58935;54.498;18.544;2023-05-02T05:48:24;10.50;;;5.40;;
71204;SDS011;58935;54.498;18.544;2023-05-02T05:50:50;12.50;;;4.70;;
71204;SDS011;58935;54.498;18.544;2023-05-02T05:53:16;8.40;;;5.00;;
71204;SDS011;58935;54.498;18.544;2023-05-02T05:55:43;8.10;;;4.50;;
71204;SDS011;58935;54.498;18.544;2023-05-02T05:58:08;11.70;;;5.20;;
71204;SDS011;58935;54.498;18.544;2023-05-02T06:00:35;8.60;;;4.10;;
71204;SDS011;58935;54.498;18.544;2023-05-02T06:03:01;7.90;;;4.50;;
71204;SDS011;58935;54.498;18.544;2023-05-02T06:05:30;6.60;;;4.30;;
71204;SDS011;58935;54.498;18.544;2023-05-02T06:07:56;12.00;;;4.70;;
71204;SDS011;58935;54.498;18.544;2023-05-02T06:10:25;5.80;;;4.00;;
71204;SDS011;58935;54.498;18.544;2023-05-02T06:12:51;6.30;;;4.30;;
71204;SDS011;58935;54.498;18.544;2023-05-02T06:15:16;8.90;;;4.50;;
71204;SDS011;58935;54.498;18.544;2023-05-02T06:17:42;9.00;;;4.60;;
71204;SDS011;58935;54.498;18.544;2023-05-02T06:20:08;8.10;;;4.50;;
71204;SDS011;58935;54.498;18.544;2023-05-02T06:22:35;17.90;;;5.00;;
71204;SDS011;58935;54.498;18.544;2023-05-02T06:25:04;14.20;;;4.40;;
71204;SDS011;58935;54.498;18.544;2023-05-02T06:27:31;13.90;;;4.60;;
71204;SDS011;58935;54.498;18.544;2023-05-02T06:29:56;9.50;;;4.70;;
71204;SDS011;58935;54.498;18.544;2023-05-02T06:32:24;9.50;;;4.10;;
71204;SDS011;58935;54.498;18.544;2023-05-02T06:34:53;10.00;;;4.90;;
71204;SDS011;58935;54.498;18.544;2023-05-02T06:37:19;8.90;;;4.40;;
71204;SDS011;58935;54.498;18.544;2023-05-02T06:39:48;12.90;;;4.50;;
71204;SDS011;58935;54.498;18.544;2023-05-02T06:42:13;9.80;;;4.80;;
71204;SDS011;58935;54.498;18.544;2023-05-02T06:44:39;11.20;;;4.50;;
71204;SDS011;58935;54.498;18.544;2023-05-02T06:47:04;8.10;;;4.80;;
71204;SDS011;58935;54.498;18.544;2023-05-02T06:49:31;8.40;;;4.90;;
71204;SDS011;58935;54.498;18.544;2023-05-02T06:51:57;11.20;;;4.30;;
71204;SDS011;58935;54.498;18.544;2023-05-02T06:54:22;18.60;;;4.80;;
71204;SDS011;58935;54.498;18.544;2023-05-02T06:56:48;10.60;;;3.90;;
71204;SDS011;58935;54.498;18.544;2023-05-02T06:59:14;11.40;;;4.60;;
71204;SDS011;58935;54.498;18.544;2023-05-02T07:01:42;7.50;;;4.60;;
71204;SDS011;58935;54.498;18.544;2023-05-02T07:04:08;11.30;;;4.30;;
71204;SDS011;58935;54.498;18.544;2023-05-02T07:06:34;8.80;;;4.50;;
71204;SDS011;58935;54.498;18.544;2023-05-02T07:08:59;9.60;;;4.50;;
71204;SDS011;58935;54.498;18.544;2023-05-02T07:11:25;14.50;;;4.40;;
71204;SDS011;58935;54.498;18.544;2023-05-02T07:13:52;9.80;;;4.60;;
71204;SDS011;58935;54.498;18.544;2023-05-02T07:16:18;9.80;;;4.50;;
71204;SDS011;58935;54.498;18.544;2023-05-02T07:18:44;8.70;;;4.20;;
71204;SDS011;58935;54.498;18.544;2023-05-02T07:21:15;11.20;;;4.00;;
71204;SDS011;58935;54.498;18.544;2023-05-02T07:23:43;12.00;;;4.40;;
71204;SDS011;58935;54.498;18.544;2023-05-02T07:26:09;6.20;;;4.20;;
71204;SDS011;58935;54.498;18.544;2023-05-02T07:28:34;13.90;;;4.60;;
71204;SDS011;58935;54.498;18.544;2023-05-02T07:31:00;13.10;;;4.50;;
71204;SDS011;58935;54.498;18.544;2023-05-02T07:33:25;10.60;;;4.60;;
71204;SDS011;58935;54.498;18.544;2023-05-02T07:35:51;17.10;;;4.30;;
71204;SDS011;58935;54.498;18.544;2023-05-02T07:38:16;8.60;;;4.10;;
71204;SDS011;58935;54.498;18.544;2023-05-02T07:40:41;6.10;;;4.00;;
71204;SDS011;58935;54.498;18.544;2023-05-02T07:43:08;5.80;;;3.90;;
71204;SDS011;58935;54.498;18.544;2023-05-02T07:45:34;9.70;;;4.20;;
71204;SDS011;58935;54.498;18.544;2023-05-02T07:48:00;5.50;;;3.90;;
71204;SDS011;58935;54.498;18.544;2023-05-02T07:50:26;11.90;;;4.10;;
71204;SDS011;58935;54.498;18.544;2023-05-02T07:52:51;12.10;;;4.30;;
71204;SDS011;58935;54.498;18.544;2023-05-02T07:55:19;10.40;;;4.40;;
71204;SDS011;58935;54.498;18.544;2023-05-02T07:57:45;8.50;;;4.10;;
71204;SDS011;58935;54.498;18.544;2023-05-02T08:00:11;8.60;;;3.90;;
71204;SDS011;58935;54.498;18.544;2023-05-02T08:02:37;4.40;;;2.60;;
71204;SDS011;58935;54.498;18.544;2023-05-02T08:05:03;6.80;;;2.90;;
71204;SDS011;58935;54.498;18.544;2023-05-02T08:07:31;7.90;;;3.20;;
71204;SDS011;58935;54.498;18.544;2023-05-02T08:09:57;6.70;;;2.80;;
71204;SDS011;58935;54.498;18.544;2023-05-02T08:12:23;10.10;;;2.80;;
71204;SDS011;58935;54.498;18.544;2023-05-02T08:14:48;4.60;;;2.70;;
71204;SDS011;58935;54.498;18.544;2023-05-02T08:17:13;7.00;;;3.10;;
71204;SDS011;58935;54.498;18.544;2023-05-02T08:19:39;7.60;;;2.70;;
71204;SDS011;58935;54.498;18.544;2023-05-02T08:22:05;5.60;;;3.00;;
71204;SDS011;58935;54.498;18.544;2023-05-02T08:24:31;5.20;;;2.70;;
71204;SDS011;58935;54.498;18.544;2023-05-02T08:26:56;10.20;;;2.80;;
71204;SDS011;58935;54.498;18.544;2023-05-02T08:29:22;7.00;;;2.80;;
71204;SDS011;58935;54.498;18.544;2023-05-02T08:31:50;4.20;;;2.70;;
71204;SDS011;58935;54.498;18.544;2023-05-02T08:34:18;5.90;;;2.70;;
71204;SDS011;58935;54.498;18.544;2023-05-02T08:36:46;6.90;;;2.90;;
71204;SDS011;58935;54.498;18.544;2023-05-02T08:39:13;5.60;;;2.90;;
71204;SDS011;58935;54.498;18.544;2023-05-02T08:41:39;7.90;;;2.70;;
71204;SDS011;58935;54.498;18.544;2023-05-02T08:44:05;6.60;;;3.40;;
71204;SDS011;58935;54.498;18.544;2023-05-02T08:46:34;5.80;;;2.70;;
71204;SDS011;58935;54.498;18.544;2023-05-02T08:49:02;3.40;;;2.30;;
71204;SDS011;58935;54.498;18.544;2023-05-02T08:51:29;5.20;;;2.50;;
71204;SDS011;58935;54.498;18.544;2023-05-02T08:53:57;5.60;;;2.20;;
71204;SDS011;58935;54.498;18.544;2023-05-02T08:56:24;4.70;;;2.70;;
71204;SDS011;58935;54.498;18.544;2023-05-02T08:58:50;8.50;;;2.40;;
71204;SDS011;58935;54.498;18.544;2023-05-02T09:01:18;2.80;;;2.00;;
71204;SDS011;58935;54.498;18.544;2023-05-02T09:03:47;5.30;;;2.60;;
71204;SDS011;58935;54.498;18.544;2023-05-02T09:06:16;6.00;;;2.50;;
71204;SDS011;58935;54.498;18.544;2023-05-02T09:08:47;9.20;;;2.70;;
71204;SDS011;58935;54.498;18.544;2023-05-02T09:11:15;7.70;;;2.80;;
71204;SDS011;58935;54.498;18.544;2023-05-02T09:13:45;4.50;;;2.40;;
71204;SDS011;58935;54.498;18.544;2023-05-02T09:16:16;4.90;;;2.20;;
71204;SDS011;58935;54.498;18.544;2023-05-02T09:18:50;4.80;;;2.30;;
71204;SDS011;58935;54.498;18.544;2023-05-02T09:21:20;6.80;;;2.90;;
71204;SDS011;58935;54.498;18.544;2023-05-02T09:23:54;6.50;;;2.50;;
71204;SDS011;58935;54.498;18.544;2023-05-02T09:26:23;6.10;;;3.10;;
71204;SDS011;58935;54.498;18.544;2023-05-02T09:28:54;4.10;;;2.50;;
71204;SDS011;58935;54.498;18.544;2023-05-02T09:31:23;7.60;;;3.40;;
71204;SDS011;58935;54.498;18.544;2023-05-02T09:33:55;5.10;;;3.50;;
71204;SDS011;58935;54.498;18.544;2023-05-02T09:36:21;7.90;;;3.60;;
71204;SDS011;58935;54.498;18.544;2023-05-02T09:38:50;8.40;;;3.70;;
71204;SDS011;58935;54.498;18.544;2023-05-02T09:41:16;3.90;;;3.50;;
71204;SDS011;58935;54.498;18.544;2023-05-02T09:43:54;6.70;;;3.90;;
71204;SDS011;58935;54.498;18.544;2023-05-02T09:46:23;6.10;;;4.20;;
71204;SDS011;58935;54.498;18.544;2023-05-02T09:48:52;7.30;;;4.70;;
71204;SDS011;58935;54.498;18.544;2023-05-02T09:51:20;7.80;;;4.50;;
71204;SDS011;58935;54.498;18.544;2023-05-02T09:53:48;6.50;;;4.70;;
71204;SDS011;58935;54.498;18.544;2023-05-02T09:56:14;9.70;;;5.30;;
71204;SDS011;58935;54.498;18.544;2023-05-02T09:58:41;5.60;;;5.00;;
71204;SDS011;58935;54.498;18.544;2023-05-02T10:01:07;10.90;;;5.30;;
71204;SDS011;58935;54.498;18.544;2023-05-02T10:03:40;7.20;;;4.80;;
71204;SDS011;58935;54.498;18.544;2023-05-02T10:06:07;6.90;;;5.80;;
71204;SDS011;58935;54.498;18.544;2023-05-02T10:08:34;11.80;;;6.40;;
71204;SDS011;58935;54.498;18.544;2023-05-02T10:11:03;12.00;;;6.30;;
71204;SDS011;58935;54.498;18.544;2023-05-02T10:13:32;7.80;;;6.20;;
71204;SDS011;58935;54.498;18.544;2023-05-02T10:16:01;12.20;;;6.60;;
71204;SDS011;58935;54.498;18.544;2023-05-02T10:21:07;7.50;;;5.50;;
71204;SDS011;58935;54.498;18.544;2023-05-02T10:23:40;10.90;;;5.20;;
71204;SDS011;58935;54.498;18.544;2023-05-02T10:28:40;6.00;;;4.70;;
71204;SDS011;58935;54.498;18.544;2023-05-02T10:31:10;5.30;;;4.40;;
71204;SDS011;58935;54.498;18.544;2023-05-02T10:33:39;5.40;;;4.50;;
71204;SDS011;58935;54.498;18.544;2023-05-02T10:36:09;8.50;;;4.90;;
71204;SDS011;58935;54.498;18.544;2023-05-02T10:38:38;8.50;;;4.40;;
71204;SDS011;58935;54.498;18.544;2023-05-02T10:41:12;6.90;;;4.70;;
71204;SDS011;58935;54.498;18.544;2023-05-02T10:43:45;5.80;;;4.60;;
71204;SDS011;58935;54.498;18.544;2023-05-02T10:51:28;5.90;;;5.10;;
71204;SDS011;58935;54.498;18.544;2023-05-02T10:56:30;11.40;;;4.70;;
71204;SDS011;58935;54.498;18.544;2023-05-02T11:01:48;6.30;;;4.60;;
71204;SDS011;58935;54.498;18.544;2023-05-02T11:04:14;5.90;;;5.30;;
71204;SDS011;58935;54.498;18.544;2023-05-02T11:09:30;28.80;;;5.90;;
71204;SDS011;58935;54.498;18.544;2023-05-02T11:14:42;8.80;;;5.00;;
71204;SDS011;58935;54.498;18.544;2023-05-02T11:17:09;14.70;;;5.60;;
71204;SDS011;58935;54.498;18.544;2023-05-02T11:24:56;6.60;;;5.40;;
71204;SDS011;58935;54.498;18.544;2023-05-02T11:29:56;8.20;;;5.00;;
71204;SDS011;58935;54.498;18.544;2023-05-02T11:32:24;7.50;;;4.80;;
71204;SDS011;58935;54.498;18.544;2023-05-02T11:37:42;4.60;;;2.90;;
71204;SDS011;58935;54.498;18.544;2023-05-02T11:40:17;2.80;;;2.40;;
71204;SDS011;58935;54.498;18.544;2023-05-02T11:42:43;4.10;;;2.50;;
71204;SDS011;58935;54.498;18.544;2023-05-02T11:45:09;38.30;;;3.80;;
71204;SDS011;58935;54.498;18.544;2023-05-02T11:47:35;2.50;;;2.30;;
71204;SDS011;58935;54.498;18.544;2023-05-02T11:50:04;2.80;;;2.60;;
71204;SDS011;58935;54.498;18.544;2023-05-02T11:52:36;2.80;;;2.50;;
71204;SDS011;58935;54.498;18.544;2023-05-02T11:55:05;3.70;;;2.80;;
71204;SDS011;58935;54.498;18.544;2023-05-02T11:57:33;4.10;;;3.30;;
71204;SDS011;58935;54.498;18.544;2023-05-02T11:59:59;3.40;;;3.10;;
71204;SDS011;58935;54.498;18.544;2023-05-02T12:05:01;4.00;;;3.70;;
71204;SDS011;58935;54.498;18.544;2023-05-02T12:07:34;6.50;;;4.20;;
71204;SDS011;58935;54.498;18.544;2023-05-02T12:10:02;5.20;;;4.20;;
71204;SDS011;58935;54.498;18.544;2023-05-02T12:12:31;4.60;;;4.00;;
71204;SDS011;58935;54.498;18.544;2023-05-02T12:14:57;6.20;;;3.90;;
71204;SDS011;58935;54.498;18.544;2023-05-02T12:17:23;4.80;;;3.50;;
71204;SDS011;58935;54.498;18.544;2023-05-02T12:19:50;4.40;;;3.80;;
71204;SDS011;58935;54.498;18.544;2023-05-02T12:22:18;4.20;;;3.30;;
71204;SDS011;58935;54.498;18.544;2023-05-02T12:24:51;8.60;;;3.80;;
71204;SDS011;58935;54.498;18.544;2023-05-02T12:27:18;7.30;;;3.80;;
71204;SDS011;58935;54.498;18.544;2023-05-02T12:29:47;7.20;;;3.60;;
71204;SDS011;58935;54.498;18.544;2023-05-02T12:32:14;4.00;;;2.90;;
71204;SDS011;58935;54.498;18.544;2023-05-02T12:34:50;7.50;;;4.00;;
71204;SDS011;58935;54.498;18.544;2023-05-02T12:37:23;8.30;;;3.90;;
71204;SDS011;58935;54.498;18.544;2023-05-02T12:39:50;8.00;;;3.50;;
71204;SDS011;58935;54.498;18.544;2023-05-02T12:42:19;8.80;;;4.50;;
71204;SDS011;58935;54.498;18.544;2023-05-02T12:44:47;11.00;;;4.10;;
71204;SDS011;58935;54.498;18.544;2023-05-02T12:47:19;10.10;;;3.80;;
71204;SDS011;58935;54.498;18.544;2023-05-02T12:49:55;5.10;;;3.20;;
71204;SDS011;58935;54.498;18.544;2023-05-02T12:55:14;6.80;;;2.70;;
71204;SDS011;58935;54.498;18.544;2023-05-02T12:57:42;9.30;;;3.20;;
71204;SDS011;58935;54.498;18.544;2023-05-02T13:00:08;5.70;;;2.40;;
71204;SDS011;58935;54.498;18.544;2023-05-02T13:02:34;6.80;;;2.80;;
71204;SDS011;58935;54.498;18.544;2023-05-02T13:05:13;7.20;;;2.40;;
71204;SDS011;58935;54.498;18.544;2023-05-02T13:07:39;5.90;;;2.30;;
71204;SDS011;58935;54.498;18.544;2023-05-02T13:10:05;5.20;;;2.20;;
71204;SDS011;58935;54.498;18.544;2023-05-02T13:12:31;7.40;;;2.70;;
71204;SDS011;58935;54.498;18.544;2023-05-02T13:14:57;5.50;;;2.70;;
71204;SDS011;58935;54.498;18.544;2023-05-02T13:17:25;4.60;;;2.20;;
71204;SDS011;58935;54.498;18.544;2023-05-02T13:19:52;6.20;;;1.90;;
71204;SDS011;58935;54.498;18.544;2023-05-02T13:22:18;8.40;;;2.60;;
71204;SDS011;58935;54.498;18.544;2023-05-02T13:24:44;3.40;;;1.70;;
71204;SDS011;58935;54.498;18.544;2023-05-02T13:27:10;7.40;;;1.90;;
71204;SDS011;58935;54.498;18.544;2023-05-02T13:29:36;5.50;;;2.20;;
71204;SDS011;58935;54.498;18.544;2023-05-02T13:32:02;7.30;;;2.20;;
71204;SDS011;58935;54.498;18.544;2023-05-02T13:34:27;6.20;;;2.10;;
71204;SDS011;58935;54.498;18.544;2023-05-02T13:36:53;9.30;;;1.90;;
71204;SDS011;58935;54.498;18.544;2023-05-02T13:39:19;5.80;;;2.10;;
71204;SDS011;58935;54.498;18.544;2023-05-02T13:41:44;6.30;;;1.80;;
71204;SDS011;58935;54.498;18.544;2023-05-02T13:44:12;4.40;;;1.80;;
71204;SDS011;58935;54.498;18.544;2023-05-02T13:46:38;6.50;;;1.90;;
71204;SDS011;58935;54.498;18.544;2023-05-02T13:49:04;3.30;;;1.80;;
71204;SDS011;58935;54.498;18.544;2023-05-02T13:51:31;2.40;;;1.50;;
71204;SDS011;58935;54.498;18.544;2023-05-02T13:53:57;3.30;;;1.50;;
71204;SDS011;58935;54.498;18.544;2023-05-02T13:56:23;3.80;;;1.50;;
71204;SDS011;58935;54.498;18.544;2023-05-02T13:58:49;3.30;;;1.90;;
71204;SDS011;58935;54.498;18.544;2023-05-02T14:01:14;2.60;;;1.50;;
71204;SDS011;58935;54.498;18.544;2023-05-02T14:03:40;4.90;;;1.90;;
71204;SDS011;58935;54.498;18.544;2023-05-02T14:06:06;3.90;;;1.60;;
71204;SDS011;58935;54.498;18.544;2023-05-02T14:08:32;2.30;;;1.30;;
71204;SDS011;58935;54.498;18.544;2023-05-02T14:10:58;1.70;;;1.10;;
71204;SDS011;58935;54.498;18.544;2023-05-02T14:13:23;3.90;;;1.40;;
71204;SDS011;58935;54.498;18.544;2023-05-02T14:15:52;1.10;;;1.10;;
71204;SDS011;58935;54.498;18.544;2023-05-02T14:18:18;2.20;;;1.20;;
71204;SDS011;58935;54.498;18.544;2023-05-02T14:20:44;2.70;;;1.50;;
71204;SDS011;58935;54.498;18.544;2023-05-02T14:23:12;2.50;;;1.20;;
71204;SDS011;58935;54.498;18.544;2023-05-02T14:29:19;2.20;;;1.30;;
71204;SDS011;58935;54.498;18.544;2023-05-02T14:31:44;2.00;;;1.40;;
71204;SDS011;58935;54.498;18.544;2023-05-02T14:34:10;2.10;;;1.30;;
71204;SDS011;58935;54.498;18.544;2023-05-02T14:36:35;1.40;;;1.30;;
71204;SDS011;58935;54.498;18.544;2023-05-02T14:39:01;1.40;;;1.30;;
71204;SDS011;58935;54.498;18.544;2023-05-02T14:41:31;2.20;;;1.50;;
71204;SDS011;58935;54.498;18.544;2023-05-02T14:43:59;3.10;;;1.80;;
71204;SDS011;58935;54.498;18.544;2023-05-02T14:46:24;3.30;;;1.30;;
71204;SDS011;58935;54.498;18.544;2023-05-02T14:48:50;2.10;;;1.20;;
71204;SDS011;58935;54.498;18.544;2023-05-02T14:51:15;3.60;;;1.40;;
71204;SDS011;58935;54.498;18.544;2023-05-02T14:53:41;9.10;;;2.20;;
71204;SDS011;58935;54.498;18.544;2023-05-02T14:56:11;9.30;;;2.20;;
71204;SDS011;58935;54.498;18.544;2023-05-02T14:58:40;9.20;;;2.60;;
71204;SDS011;58935;54.498;18.544;2023-05-02T15:01:06;6.90;;;2.10;;
71204;SDS011;58935;54.498;18.544;2023-05-02T15:03:39;7.00;;;2.30;;
71204;SDS011;58935;54.498;18.544;2023-05-02T15:06:05;3.20;;;1.60;;
71204;SDS011;58935;54.498;18.544;2023-05-02T15:08:31;7.50;;;1.60;;
71204;SDS011;58935;54.498;18.544;2023-05-02T15:10:56;4.00;;;1.70;;
71204;SDS011;58935;54.498;18.544;2023-05-02T15:13:22;2.10;;;1.00;;
71204;SDS011;58935;54.498;18.544;2023-05-02T15:15:48;1.30;;;1.00;;
71204;SDS011;58935;54.498;18.544;2023-05-02T15:18:13;2.20;;;1.20;;
71204;SDS011;58935;54.498;18.544;2023-05-02T15:20:39;1.40;;;1.10;;
71204;SDS011;58935;54.498;18.544;2023-05-02T15:23:05;2.80;;;1.00;;
71204;SDS011;58935;54.498;18.544;2023-05-02T15:25:31;1.60;;;1.00;;
71204;SDS011;58935;54.498;18.544;2023-05-02T15:27:57;1.30;;;1.10;;